createdAt,value
2017-10-02T00:00:17.263Z,0
2017-10-02T00:01:26.091Z,0
2017-10-02T00:02:34.929Z,0
2017-10-02T00:03:44.089Z,0
2017-10-02T00:04:52.922Z,0
2017-10-02T00:06:01.752Z,0
2017-10-02T00:07:10.589Z,0
2017-10-02T00:08:19.427Z,0
2017-10-02T00:09:28.266Z,0
2017-10-02T00:10:37.101Z,0
2017-10-02T00:11:45.934Z,0
2017-10-02T00:12:54.767Z,0
2017-10-02T00:14:03.604Z,0
2017-10-02T00:15:12.767Z,0
2017-10-02T00:16:21.602Z,0
2017-10-02T00:17:30.435Z,0
2017-10-02T00:18:39.262Z,0
2017-10-02T00:19:48.102Z,0
2017-10-02T00:20:56.935Z,0
2017-10-02T00:22:05.768Z,0
2017-10-02T00:23:14.598Z,0
2017-10-02T00:24:23.430Z,0
2017-10-02T00:25:32.264Z,0
2017-10-02T00:26:41.099Z,0
2017-10-02T00:27:49.935Z,0
2017-10-02T00:28:58.764Z,0
2017-10-02T00:30:07.602Z,0
2017-10-02T00:31:16.437Z,0
2017-10-02T00:32:25.272Z,0
2017-10-02T00:33:34.102Z,0
2017-10-02T00:34:42.939Z,0
2017-10-02T00:35:51.776Z,0
2017-10-02T00:37:00.608Z,0
2017-10-02T00:38:09.441Z,0
2017-10-02T00:39:18.270Z,0
2017-10-02T00:40:27.107Z,0
2017-10-02T00:41:35.943Z,0
2017-10-02T00:42:44.781Z,0
2017-10-02T00:43:53.611Z,0
2017-10-02T00:45:02.450Z,0
2017-10-02T00:46:11.278Z,0
2017-10-02T00:47:20.109Z,0
2017-10-02T00:48:28.947Z,0
2017-10-02T00:49:37.776Z,0
2017-10-02T00:50:46.609Z,0
2017-10-02T00:51:55.441Z,0
2017-10-02T00:53:04.284Z,0
2017-10-02T00:54:13.121Z,0
2017-10-02T00:55:21.951Z,0
2017-10-02T00:56:31.109Z,0
2017-10-02T00:57:39.943Z,0
2017-10-02T00:58:48.776Z,0
2017-10-02T00:59:57.608Z,0
2017-10-02T01:01:06.446Z,0
2017-10-02T01:02:15.280Z,0
2017-10-02T01:03:24.116Z,0
2017-10-02T01:04:32.954Z,0
2017-10-02T01:05:41.788Z,0
2017-10-02T01:06:50.621Z,0
2017-10-02T01:07:59.448Z,0
2017-10-02T01:09:08.288Z,0
2017-10-02T01:10:17.123Z,0
2017-10-02T01:11:26.277Z,0
2017-10-02T01:12:35.115Z,0
2017-10-02T01:13:43.945Z,0
2017-10-02T01:14:52.777Z,0
2017-10-02T01:16:01.614Z,0
2017-10-02T01:17:10.773Z,0
2017-10-02T01:18:19.946Z,0
2017-10-02T01:19:28.778Z,0
2017-10-02T01:20:38.269Z,0
2017-10-02T01:21:47.426Z,0
2017-10-02T01:22:56.272Z,0
2017-10-02T01:24:05.747Z,0
2017-10-02T01:25:14.583Z,0
2017-10-02T01:26:23.415Z,0
2017-10-02T01:27:32.255Z,0
2017-10-02T01:28:41.084Z,0
2017-10-02T01:29:49.923Z,0
2017-10-02T01:30:58.757Z,0
2017-10-02T01:32:07.911Z,0
2017-10-02T01:33:16.750Z,0
2017-10-02T01:34:25.578Z,0
2017-10-02T01:35:34.416Z,0
2017-10-02T01:36:43.247Z,0
2017-10-02T01:37:52.079Z,0
2017-10-02T01:39:00.912Z,0
2017-10-02T01:40:09.752Z,0
2017-10-02T01:41:18.578Z,0
2017-10-02T01:42:27.415Z,0
2017-10-02T01:43:36.242Z,0
2017-10-02T01:44:45.083Z,0
2017-10-02T01:45:53.918Z,0
2017-10-02T01:47:02.751Z,0
2017-10-02T01:48:11.583Z,0
2017-10-02T01:49:20.418Z,0
2017-10-02T01:50:29.250Z,0
2017-10-02T01:51:38.080Z,0
2017-10-02T01:52:46.916Z,0
2017-10-02T01:53:55.749Z,0
2017-10-02T01:55:04.578Z,0
2017-10-02T01:56:13.414Z,0
2017-10-02T01:57:22.256Z,0
2017-10-02T01:58:31.081Z,0
2017-10-02T01:59:39.913Z,0
2017-10-02T02:00:48.752Z,0
2017-10-02T02:01:57.589Z,0
2017-10-02T02:03:06.420Z,0
2017-10-02T02:04:15.258Z,0
2017-10-02T02:05:24.093Z,0
2017-10-02T02:06:32.928Z,0
2017-10-02T02:07:41.765Z,0
2017-10-02T02:08:50.601Z,0
2017-10-02T02:09:59.430Z,0
2017-10-02T02:11:08.266Z,0
2017-10-02T02:12:17.093Z,0
2017-10-02T02:13:25.929Z,0
2017-10-02T02:14:34.769Z,0
2017-10-02T02:15:43.601Z,0
2017-10-02T02:16:52.432Z,0
2017-10-02T02:18:01.270Z,0
2017-10-02T02:19:10.098Z,0
2017-10-02T02:20:18.935Z,0
2017-10-02T02:21:27.769Z,0
2017-10-02T02:22:36.602Z,0
2017-10-02T02:23:45.429Z,0
2017-10-02T02:24:54.270Z,0
2017-10-02T02:26:03.101Z,0
2017-10-02T02:27:11.938Z,0
2017-10-02T02:28:20.768Z,0
2017-10-02T02:29:29.601Z,0
2017-10-02T02:30:38.755Z,0
2017-10-02T02:31:47.599Z,0
2017-10-02T02:32:56.751Z,0
2017-10-02T02:34:05.582Z,0
2017-10-02T02:35:14.413Z,0
2017-10-02T02:36:23.568Z,0
2017-10-02T02:37:32.407Z,0
2017-10-02T02:38:41.236Z,0
2017-10-02T02:39:50.081Z,0
2017-10-02T02:40:58.918Z,0
2017-10-02T02:42:07.756Z,0
2017-10-02T02:43:16.911Z,0
2017-10-02T02:44:26.065Z,0
2017-10-02T02:45:34.903Z,0
2017-10-02T02:46:43.741Z,0
2017-10-02T02:47:52.911Z,0
2017-10-02T02:49:01.746Z,0
2017-10-02T02:50:10.579Z,0
2017-10-02T02:51:19.737Z,0
2017-10-02T02:52:28.579Z,0
2017-10-02T02:53:37.735Z,0
2017-10-02T02:54:46.563Z,0
2017-10-02T02:55:55.400Z,0
2017-10-02T02:57:04.233Z,0
2017-10-02T02:58:13.073Z,0
2017-10-02T02:59:21.919Z,0
2017-10-02T03:00:30.742Z,0
2017-10-02T03:01:39.571Z,0
2017-10-02T03:02:48.405Z,0
2017-10-02T03:03:57.238Z,0
2017-10-02T03:05:06.067Z,0
2017-10-02T03:06:14.904Z,0
2017-10-02T03:07:23.734Z,0
2017-10-02T03:08:32.571Z,0
2017-10-02T03:09:41.402Z,0
2017-10-02T03:10:50.237Z,0
2017-10-02T03:11:59.070Z,0
2017-10-02T03:13:07.901Z,0
2017-10-02T03:14:16.740Z,0
2017-10-02T03:15:25.572Z,0
2017-10-02T03:16:34.406Z,0
2017-10-02T03:17:43.561Z,0
2017-10-02T03:18:52.716Z,0
2017-10-02T03:20:01.552Z,0
2017-10-02T03:21:10.383Z,0
2017-10-02T03:22:19.219Z,0
2017-10-02T03:23:28.044Z,0
2017-10-02T03:24:36.880Z,0
2017-10-02T03:25:45.711Z,0
2017-10-02T03:26:54.551Z,0
2017-10-02T03:28:03.385Z,0
2017-10-02T03:29:12.215Z,0
2017-10-02T03:30:21.370Z,0
2017-10-02T03:31:30.209Z,0
2017-10-02T03:32:39.045Z,0
2017-10-02T03:33:47.878Z,0
2017-10-02T03:34:56.715Z,0
2017-10-02T03:36:05.544Z,0
2017-10-02T03:37:14.380Z,0
2017-10-02T03:38:23.212Z,0
2017-10-02T03:39:32.052Z,0
2017-10-02T03:40:40.881Z,0
2017-10-02T03:41:49.721Z,0
2017-10-02T03:42:58.555Z,0
2017-10-02T03:44:07.385Z,0
2017-10-02T03:45:16.220Z,0
2017-10-02T03:46:25.057Z,0
2017-10-02T03:47:34.208Z,0
2017-10-02T03:48:43.044Z,0
2017-10-02T03:49:51.875Z,0
2017-10-02T03:51:00.708Z,0
2017-10-02T03:52:09.542Z,0
2017-10-02T03:53:18.379Z,0
2017-10-02T03:54:27.209Z,0
2017-10-02T03:55:36.049Z,0
2017-10-02T03:56:44.892Z,0
2017-10-02T03:57:53.730Z,0
2017-10-02T03:59:02.567Z,0
2017-10-02T04:00:11.454Z,0
2017-10-02T04:01:20.298Z,0
2017-10-02T04:02:29.132Z,0
2017-10-02T04:03:37.970Z,0
2017-10-02T04:04:46.810Z,0
2017-10-02T04:05:55.648Z,0
2017-10-02T04:07:04.813Z,0
2017-10-02T04:08:13.658Z,0
2017-10-02T04:09:22.493Z,0
2017-10-02T04:10:31.336Z,0
2017-10-02T04:11:40.172Z,0
2017-10-02T04:12:49.010Z,0
2017-10-02T04:13:57.849Z,0
2017-10-02T04:15:06.688Z,0
2017-10-02T04:16:15.527Z,0
2017-10-02T04:17:24.368Z,0
2017-10-02T04:18:33.205Z,0
2017-10-02T04:19:42.043Z,0
2017-10-02T04:20:50.881Z,0
2017-10-02T04:22:00.046Z,0
2017-10-02T04:23:08.883Z,0
2017-10-02T04:24:17.722Z,0
2017-10-02T04:25:26.562Z,0
2017-10-02T04:26:35.403Z,0
2017-10-02T04:27:44.239Z,0
2017-10-02T04:28:53.078Z,0
2017-10-02T04:30:01.922Z,0
2017-10-02T04:31:10.759Z,0
2017-10-02T04:32:19.605Z,0
2017-10-02T04:33:28.441Z,0
2017-10-02T04:34:37.281Z,0
2017-10-02T04:35:46.123Z,0
2017-10-02T04:36:54.957Z,0
2017-10-02T04:38:03.795Z,0
2017-10-02T04:39:12.635Z,0
2017-10-02T04:40:21.472Z,0
2017-10-02T04:41:30.311Z,0
2017-10-02T04:42:39.151Z,0
2017-10-02T04:43:47.992Z,0
2017-10-02T04:44:56.828Z,4
2017-10-02T04:46:05.663Z,0
2017-10-02T04:47:14.501Z,0
2017-10-02T04:48:23.338Z,4
2017-10-02T04:49:32.183Z,0
2017-10-02T04:50:41.018Z,0
2017-10-02T04:51:49.858Z,4
2017-10-02T04:52:58.692Z,4
2017-10-02T04:54:07.538Z,4
2017-10-02T04:55:16.372Z,4
2017-10-02T04:56:25.211Z,4
2017-10-02T04:57:34.051Z,4
2017-10-02T04:58:42.888Z,8
2017-10-02T04:59:51.723Z,12
2017-10-02T05:01:00.563Z,12
2017-10-02T05:02:09.397Z,12
2017-10-02T05:03:18.567Z,16
2017-10-02T05:04:28.049Z,20
2017-10-02T05:05:36.895Z,20
2017-10-02T05:06:45.726Z,24
2017-10-02T05:07:54.566Z,28
2017-10-02T05:09:03.398Z,28
2017-10-02T05:10:12.243Z,28
2017-10-02T05:11:21.085Z,32
2017-10-02T05:12:29.921Z,36
2017-10-02T05:13:39.081Z,36
2017-10-02T05:14:47.916Z,40
2017-10-02T05:15:56.754Z,44
2017-10-02T05:17:05.595Z,48
2017-10-02T05:18:14.432Z,56
2017-10-02T05:19:23.272Z,60
2017-10-02T05:20:32.110Z,68
2017-10-02T05:21:40.956Z,76
2017-10-02T05:22:50.115Z,84
2017-10-02T05:23:58.953Z,88
2017-10-02T05:25:07.793Z,92
2017-10-02T05:26:16.633Z,100
2017-10-02T05:27:25.474Z,120
2017-10-02T05:28:34.313Z,128
2017-10-02T05:29:43.145Z,140
2017-10-02T05:30:51.987Z,148
2017-10-02T05:32:01.165Z,160
2017-10-02T05:33:10.009Z,160
2017-10-02T05:34:18.846Z,160
2017-10-02T05:35:27.685Z,168
2017-10-02T05:36:36.525Z,172
2017-10-02T05:37:45.362Z,176
2017-10-02T05:38:54.201Z,184
2017-10-02T05:40:03.043Z,192
2017-10-02T05:41:11.884Z,196
2017-10-02T05:42:20.722Z,196
2017-10-02T05:43:29.556Z,200
2017-10-02T05:44:38.402Z,196
2017-10-02T05:45:47.564Z,200
2017-10-02T05:46:56.406Z,200
2017-10-02T05:48:05.244Z,212
2017-10-02T05:49:14.084Z,212
2017-10-02T05:50:22.916Z,228
2017-10-02T05:51:31.756Z,240
2017-10-02T05:52:40.593Z,248
2017-10-02T05:53:49.434Z,252
2017-10-02T05:54:58.274Z,256
2017-10-02T05:56:07.441Z,288
2017-10-02T05:57:16.275Z,264
2017-10-02T05:58:25.120Z,260
2017-10-02T05:59:33.953Z,268
2017-10-02T06:00:42.802Z,260
2017-10-02T06:01:51.634Z,256
2017-10-02T06:03:00.473Z,264
2017-10-02T06:04:09.308Z,272
2017-10-02T06:05:18.152Z,276
2017-10-02T06:06:26.991Z,296
2017-10-02T06:07:35.827Z,312
2017-10-02T06:08:44.665Z,320
2017-10-02T06:09:53.510Z,332
2017-10-02T06:11:02.668Z,368
2017-10-02T06:12:11.509Z,376
2017-10-02T06:13:20.348Z,400
2017-10-02T06:14:29.186Z,416
2017-10-02T06:15:38.352Z,424
2017-10-02T06:16:47.195Z,492
2017-10-02T06:17:56.032Z,460
2017-10-02T06:19:04.872Z,468
2017-10-02T06:20:13.709Z,512
2017-10-02T06:21:22.548Z,492
2017-10-02T06:22:31.388Z,516
2017-10-02T06:23:40.227Z,528
2017-10-02T06:24:49.073Z,512
2017-10-02T06:25:58.234Z,532
2017-10-02T06:27:07.072Z,544
2017-10-02T06:28:15.908Z,576
2017-10-02T06:29:24.746Z,588
2017-10-02T06:30:33.584Z,620
2017-10-02T06:31:42.748Z,604
2017-10-02T06:32:51.589Z,624
2017-10-02T06:34:00.423Z,628
2017-10-02T06:35:09.261Z,600
2017-10-02T06:36:18.099Z,580
2017-10-02T06:37:26.934Z,584
2017-10-02T06:38:35.773Z,588
2017-10-02T06:39:44.616Z,608
2017-10-02T06:40:53.454Z,584
2017-10-02T06:42:02.297Z,588
2017-10-02T06:43:11.133Z,608
2017-10-02T06:44:19.977Z,628
2017-10-02T06:45:28.811Z,616
2017-10-02T06:46:37.651Z,624
2017-10-02T06:47:46.492Z,608
2017-10-02T06:48:55.331Z,616
2017-10-02T06:50:04.169Z,620
2017-10-02T06:51:13.010Z,688
2017-10-02T06:52:21.841Z,660
2017-10-02T06:53:30.680Z,688
2017-10-02T06:54:39.518Z,728
2017-10-02T06:55:48.360Z,772
2017-10-02T06:56:57.195Z,780
2017-10-02T06:58:06.037Z,792
2017-10-02T06:59:14.871Z,880
2017-10-02T07:00:23.714Z,836
2017-10-02T07:01:32.557Z,828
2017-10-02T07:02:41.392Z,832
2017-10-02T07:03:50.228Z,840
2017-10-02T07:04:59.066Z,836
2017-10-02T07:06:07.903Z,816
2017-10-02T07:07:16.745Z,848
2017-10-02T07:08:25.589Z,896
2017-10-02T07:09:34.421Z,832
2017-10-02T07:10:43.258Z,836
2017-10-02T07:11:52.103Z,864
2017-10-02T07:13:00.939Z,904
2017-10-02T07:14:09.784Z,880
2017-10-02T07:15:18.621Z,860
2017-10-02T07:16:27.458Z,844
2017-10-02T07:17:36.301Z,868
2017-10-02T07:18:45.141Z,820
2017-10-02T07:19:53.987Z,840
2017-10-02T07:21:02.826Z,820
2017-10-02T07:22:11.662Z,868
2017-10-02T07:23:20.500Z,840
2017-10-02T07:24:29.348Z,868
2017-10-02T07:25:38.180Z,856
2017-10-02T07:26:47.016Z,960
2017-10-02T07:27:55.854Z,904
2017-10-02T07:29:04.696Z,912
2017-10-02T07:30:13.541Z,928
2017-10-02T07:31:22.376Z,964
2017-10-02T07:32:31.218Z,1000
2017-10-02T07:33:40.051Z,980
2017-10-02T07:34:48.900Z,988
2017-10-02T07:35:57.735Z,1028
2017-10-02T07:37:06.578Z,1004
2017-10-02T07:38:15.414Z,964
2017-10-02T07:39:24.254Z,968
2017-10-02T07:40:33.093Z,1052
2017-10-02T07:41:41.931Z,972
2017-10-02T07:42:50.773Z,1048
2017-10-02T07:43:59.613Z,988
2017-10-02T07:45:08.450Z,980
2017-10-02T07:46:17.288Z,1044
2017-10-02T07:47:26.126Z,1068
2017-10-02T07:48:34.968Z,1036
2017-10-02T07:49:43.809Z,1148
2017-10-02T07:50:52.646Z,1148
2017-10-02T07:52:01.486Z,1128
2017-10-02T07:53:10.322Z,1364
2017-10-02T07:54:19.161Z,1088
2017-10-02T07:55:27.999Z,1140
2017-10-02T07:56:36.841Z,1116
2017-10-02T07:57:45.681Z,1108
2017-10-02T07:58:54.524Z,1248
2017-10-02T08:00:03.375Z,1160
2017-10-02T08:01:12.215Z,1200
2017-10-02T08:02:21.055Z,1260
2017-10-02T08:03:29.895Z,1252
2017-10-02T08:04:38.736Z,1352
2017-10-02T08:05:47.575Z,1304
2017-10-02T08:06:56.740Z,1284
2017-10-02T08:08:05.580Z,1356
2017-10-02T08:09:14.418Z,1304
2017-10-02T08:10:23.261Z,1316
2017-10-02T08:11:32.097Z,1324
2017-10-02T08:12:40.944Z,1372
2017-10-02T08:13:49.775Z,1360
2017-10-02T08:14:58.610Z,1428
2017-10-02T08:16:07.451Z,1448
2017-10-02T08:17:16.296Z,1428
2017-10-02T08:18:25.142Z,1492
2017-10-02T08:19:33.979Z,1604
2017-10-02T08:20:43.143Z,1536
2017-10-02T08:21:51.978Z,1400
2017-10-02T08:23:00.820Z,1472
2017-10-02T08:24:09.666Z,1376
2017-10-02T08:25:18.501Z,1324
2017-10-02T08:26:27.340Z,1388
2017-10-02T08:27:36.182Z,1252
2017-10-02T08:28:45.020Z,1352
2017-10-02T08:29:53.862Z,1196
2017-10-02T08:31:02.699Z,1264
2017-10-02T08:32:11.544Z,1176
2017-10-02T08:33:20.381Z,1232
2017-10-02T08:34:29.227Z,1312
2017-10-02T08:35:38.060Z,1328
2017-10-02T08:36:46.901Z,1564
2017-10-02T08:37:55.746Z,1652
2017-10-02T08:39:04.583Z,1584
2017-10-02T08:40:13.421Z,1828
2017-10-02T08:41:22.267Z,1744
2017-10-02T08:42:31.107Z,1732
2017-10-02T08:43:39.950Z,1652
2017-10-02T08:44:48.794Z,1652
2017-10-02T08:45:57.634Z,1856
2017-10-02T08:47:06.469Z,1624
2017-10-02T08:48:15.640Z,1712
2017-10-02T08:49:24.480Z,1708
2017-10-02T08:50:33.326Z,1856
2017-10-02T08:51:42.166Z,1712
2017-10-02T08:52:51.004Z,1708
2017-10-02T08:53:59.845Z,1560
2017-10-02T08:55:08.689Z,1604
2017-10-02T08:56:17.523Z,1528
2017-10-02T08:57:26.368Z,1472
2017-10-02T08:58:35.209Z,1436
2017-10-02T08:59:44.051Z,1356
2017-10-02T09:00:53.208Z,1284
2017-10-02T09:02:02.056Z,1368
2017-10-02T09:03:10.894Z,1328
2017-10-02T09:04:20.058Z,1348
2017-10-02T09:05:28.898Z,1284
2017-10-02T09:06:37.736Z,1376
2017-10-02T09:07:46.583Z,1236
2017-10-02T09:08:55.424Z,1340
2017-10-02T09:10:04.262Z,1592
2017-10-02T09:11:13.103Z,1348
2017-10-02T09:12:21.946Z,1280
2017-10-02T09:13:30.789Z,1252
2017-10-02T09:14:39.630Z,1300
2017-10-02T09:15:48.471Z,1268
2017-10-02T09:16:57.309Z,1308
2017-10-02T09:18:06.153Z,1264
2017-10-02T09:19:14.991Z,1368
2017-10-02T09:20:23.835Z,1320
2017-10-02T09:21:32.676Z,1380
2017-10-02T09:22:41.516Z,1440
2017-10-02T09:23:50.354Z,1456
2017-10-02T09:24:59.199Z,1552
2017-10-02T09:26:08.364Z,1564
2017-10-02T09:27:17.210Z,1624
2017-10-02T09:28:26.049Z,1656
2017-10-02T09:29:34.890Z,1768
2017-10-02T09:30:43.732Z,2064
2017-10-02T09:31:52.573Z,1712
2017-10-02T09:33:01.412Z,1688
2017-10-02T09:34:10.259Z,1680
2017-10-02T09:35:19.103Z,1764
2017-10-02T09:36:27.938Z,1780
2017-10-02T09:37:36.779Z,1624
2017-10-02T09:38:45.629Z,1728
2017-10-02T09:39:54.466Z,1592
2017-10-02T09:41:03.309Z,1612
2017-10-02T09:42:12.150Z,1632
2017-10-02T09:43:20.992Z,1592
2017-10-02T09:44:29.835Z,1692
2017-10-02T09:45:39.003Z,1868
2017-10-02T09:46:47.844Z,1624
2017-10-02T09:47:56.685Z,1708
2017-10-02T09:49:05.525Z,1576
2017-10-02T09:50:14.365Z,1632
2017-10-02T09:51:23.207Z,1504
2017-10-02T09:52:32.048Z,1620
2017-10-02T09:53:40.890Z,1544
2017-10-02T09:54:49.726Z,1548
2017-10-02T09:55:58.567Z,1528
2017-10-02T09:57:07.410Z,1556
2017-10-02T09:58:16.250Z,1636
2017-10-02T09:59:25.423Z,1572
2017-10-02T10:00:34.267Z,1676
2017-10-02T10:01:43.104Z,1580
2017-10-02T10:02:51.948Z,1632
2017-10-02T10:04:00.790Z,1576
2017-10-02T10:05:09.632Z,1728
2017-10-02T10:06:18.471Z,1924
2017-10-02T10:07:27.314Z,1856
2017-10-02T10:08:36.157Z,1884
2017-10-02T10:09:45.000Z,1916
2017-10-02T10:10:53.838Z,1872
2017-10-02T10:12:02.680Z,1900
2017-10-02T10:13:11.522Z,1860
2017-10-02T10:14:20.365Z,1980
2017-10-02T10:15:29.205Z,1848
2017-10-02T10:16:38.048Z,1820
2017-10-02T10:17:46.886Z,1744
2017-10-02T10:18:55.721Z,1860
2017-10-02T10:20:04.561Z,1672
2017-10-02T10:21:13.406Z,1604
2017-10-02T10:22:22.249Z,1584
2017-10-02T10:23:31.086Z,1764
2017-10-02T10:24:39.934Z,1624
2017-10-02T10:25:48.768Z,1460
2017-10-02T10:26:57.610Z,1528
2017-10-02T10:28:06.449Z,1472
2017-10-02T10:29:15.290Z,1612
2017-10-02T10:30:24.132Z,1452
2017-10-02T10:31:32.972Z,1444
2017-10-02T10:32:41.813Z,1624
2017-10-02T10:33:50.656Z,1352
2017-10-02T10:34:59.500Z,1384
2017-10-02T10:36:08.337Z,1256
2017-10-02T10:37:17.175Z,1176
2017-10-02T10:38:26.018Z,1092
2017-10-02T10:39:34.857Z,832
2017-10-02T10:40:43.705Z,888
2017-10-02T10:41:52.546Z,896
2017-10-02T10:43:01.389Z,848
2017-10-02T10:44:10.227Z,776
2017-10-02T10:45:19.072Z,832
2017-10-02T10:46:27.915Z,824
2017-10-02T10:47:36.758Z,728
2017-10-02T10:48:45.600Z,668
2017-10-02T10:49:54.442Z,660
2017-10-02T10:51:03.283Z,604
2017-10-02T10:52:12.128Z,600
2017-10-02T10:53:20.976Z,588
2017-10-02T10:54:29.822Z,548
2017-10-02T10:55:38.663Z,580
2017-10-02T10:56:47.504Z,532
2017-10-02T10:57:56.340Z,540
2017-10-02T10:59:05.509Z,560
2017-10-02T11:00:14.354Z,584
2017-10-02T11:01:23.192Z,584
2017-10-02T11:02:32.035Z,548
2017-10-02T11:03:40.879Z,572
2017-10-02T11:04:49.718Z,608
2017-10-02T11:05:58.563Z,568
2017-10-02T11:07:07.402Z,552
2017-10-02T11:08:16.247Z,484
2017-10-02T11:09:25.084Z,460
2017-10-02T11:10:33.928Z,448
2017-10-02T11:11:42.764Z,452
2017-10-02T11:12:51.611Z,460
2017-10-02T11:14:00.449Z,500
2017-10-02T11:15:09.290Z,512
2017-10-02T11:16:18.134Z,540
2017-10-02T11:17:26.973Z,532
2017-10-02T11:18:35.813Z,620
2017-10-02T11:19:44.658Z,620
2017-10-02T11:20:53.497Z,632
2017-10-02T11:22:02.338Z,644
2017-10-02T11:23:11.179Z,620
2017-10-02T11:24:20.018Z,636
2017-10-02T11:25:28.857Z,596
2017-10-02T11:26:37.699Z,624
2017-10-02T11:27:46.538Z,592
2017-10-02T11:28:55.382Z,560
2017-10-02T11:30:04.221Z,480
2017-10-02T11:31:13.066Z,408
2017-10-02T11:32:21.908Z,544
2017-10-02T11:33:30.748Z,520
2017-10-02T11:34:39.587Z,496
2017-10-02T11:35:48.430Z,540
2017-10-02T11:36:57.273Z,488
2017-10-02T11:38:06.110Z,536
2017-10-02T11:39:14.956Z,504
2017-10-02T11:40:23.801Z,568
2017-10-02T11:41:32.641Z,544
2017-10-02T11:42:41.482Z,576
2017-10-02T11:43:50.322Z,484
2017-10-02T11:44:59.163Z,536
2017-10-02T11:46:08.001Z,440
2017-10-02T11:47:16.845Z,500
2017-10-02T11:48:25.683Z,484
2017-10-02T11:49:34.522Z,488
2017-10-02T11:50:43.366Z,368
2017-10-02T11:51:52.201Z,452
2017-10-02T11:53:01.043Z,424
2017-10-02T11:54:10.198Z,468
2017-10-02T11:55:19.040Z,404
2017-10-02T11:56:27.877Z,432
2017-10-02T11:57:36.724Z,384
2017-10-02T11:58:45.565Z,436
2017-10-02T11:59:54.408Z,400
2017-10-02T12:01:03.242Z,408
2017-10-02T12:02:12.078Z,392
2017-10-02T12:03:20.923Z,360
2017-10-02T12:04:29.763Z,352
2017-10-02T12:05:38.602Z,396
2017-10-02T12:06:47.442Z,372
2017-10-02T12:07:56.284Z,352
2017-10-02T12:09:05.127Z,376
2017-10-02T12:10:13.969Z,376
2017-10-02T12:11:22.811Z,360
2017-10-02T12:12:31.644Z,360
2017-10-02T12:13:40.809Z,392
2017-10-02T12:14:49.650Z,356
2017-10-02T12:15:58.491Z,448
2017-10-02T12:17:07.332Z,444
2017-10-02T12:18:16.176Z,468
2017-10-02T12:19:25.017Z,424
2017-10-02T12:20:33.855Z,420
2017-10-02T12:21:42.696Z,476
2017-10-02T12:22:51.538Z,452
2017-10-02T12:24:00.383Z,532
2017-10-02T12:25:09.548Z,640
2017-10-02T12:26:18.388Z,684
2017-10-02T12:27:27.222Z,564
2017-10-02T12:28:36.066Z,676
2017-10-02T12:29:44.902Z,492
2017-10-02T12:30:53.749Z,696
2017-10-02T12:32:02.917Z,604
2017-10-02T12:33:11.754Z,588
2017-10-02T12:34:20.590Z,652
2017-10-02T12:35:29.435Z,776
2017-10-02T12:36:38.274Z,684
2017-10-02T12:37:47.113Z,776
2017-10-02T12:38:55.964Z,900
2017-10-02T12:40:04.805Z,1008
2017-10-02T12:41:13.641Z,1008
2017-10-02T12:42:22.485Z,600
2017-10-02T12:43:31.319Z,624
2017-10-02T12:44:40.165Z,576
2017-10-02T12:45:49.001Z,492
2017-10-02T12:46:57.839Z,432
2017-10-02T12:48:06.679Z,440
2017-10-02T12:49:15.516Z,412
2017-10-02T12:50:24.360Z,412
2017-10-02T12:51:33.195Z,320
2017-10-02T12:52:42.036Z,376
2017-10-02T12:53:50.877Z,404
2017-10-02T12:54:59.716Z,448
2017-10-02T12:56:08.874Z,384
2017-10-02T12:57:17.715Z,404
2017-10-02T12:58:26.553Z,380
2017-10-02T12:59:35.396Z,512
2017-10-02T13:00:44.237Z,576
2017-10-02T13:01:53.075Z,472
2017-10-02T13:03:01.914Z,468
2017-10-02T13:04:10.758Z,492
2017-10-02T13:05:19.594Z,492
2017-10-02T13:06:28.434Z,484
2017-10-02T13:07:37.270Z,508
2017-10-02T13:08:46.114Z,508
2017-10-02T13:09:54.954Z,508
2017-10-02T13:11:03.798Z,516
2017-10-02T13:12:12.635Z,536
2017-10-02T13:13:21.481Z,512
2017-10-02T13:14:30.316Z,516
2017-10-02T13:15:39.150Z,432
2017-10-02T13:16:47.994Z,504
2017-10-02T13:17:57.149Z,444
2017-10-02T13:19:05.996Z,480
2017-10-02T13:20:14.834Z,516
2017-10-02T13:21:23.997Z,448
2017-10-02T13:22:32.838Z,392
2017-10-02T13:23:41.677Z,444
2017-10-02T13:24:50.516Z,340
2017-10-02T13:25:59.357Z,300
2017-10-02T13:27:08.198Z,424
2017-10-02T13:28:17.038Z,396
2017-10-02T13:29:25.876Z,264
2017-10-02T13:30:34.711Z,376
2017-10-02T13:31:43.558Z,316
2017-10-02T13:32:52.720Z,372
2017-10-02T13:34:01.558Z,344
2017-10-02T13:35:10.401Z,296
2017-10-02T13:36:19.563Z,268
2017-10-02T13:37:28.405Z,264
2017-10-02T13:38:37.238Z,268
2017-10-02T13:39:46.082Z,380
2017-10-02T13:40:54.923Z,412
2017-10-02T13:42:03.763Z,328
2017-10-02T13:43:12.597Z,248
2017-10-02T13:44:21.440Z,396
2017-10-02T13:45:30.606Z,332
2017-10-02T13:46:39.441Z,556
2017-10-02T13:47:48.287Z,508
2017-10-02T13:48:57.126Z,516
2017-10-02T13:50:05.969Z,440
2017-10-02T13:51:14.800Z,388
2017-10-02T13:52:23.638Z,280
2017-10-02T13:53:32.481Z,264
2017-10-02T13:54:41.644Z,272
2017-10-02T13:55:50.500Z,200
2017-10-02T13:56:59.340Z,280
2017-10-02T13:58:08.178Z,328
2017-10-02T13:59:17.342Z,288
2017-10-02T14:00:26.183Z,308
2017-10-02T14:01:35.025Z,316
2017-10-02T14:02:43.856Z,284
2017-10-02T14:03:52.695Z,300
2017-10-02T14:05:01.533Z,260
2017-10-02T14:06:10.380Z,180
2017-10-02T14:07:19.213Z,268
2017-10-02T14:08:28.050Z,260
2017-10-02T14:09:36.892Z,176
2017-10-02T14:10:45.728Z,132
2017-10-02T14:11:54.568Z,188
2017-10-02T14:13:03.406Z,184
2017-10-02T14:14:12.248Z,176
2017-10-02T14:15:21.419Z,244
2017-10-02T14:16:30.256Z,224
2017-10-02T14:17:39.090Z,216
2017-10-02T14:18:47.931Z,200
2017-10-02T14:19:56.767Z,236
2017-10-02T14:21:05.608Z,336
2017-10-02T14:22:14.455Z,260
2017-10-02T14:23:23.295Z,276
2017-10-02T14:24:32.125Z,260
2017-10-02T14:25:40.964Z,224
2017-10-02T14:26:50.133Z,232
2017-10-02T14:27:58.968Z,308
2017-10-02T14:29:07.813Z,228
2017-10-02T14:30:16.653Z,172
2017-10-02T14:31:25.487Z,144
2017-10-02T14:32:34.330Z,156
2017-10-02T14:33:43.163Z,112
2017-10-02T14:34:52.009Z,136
2017-10-02T14:36:00.841Z,172
2017-10-02T14:37:09.678Z,180
2017-10-02T14:38:18.514Z,160
2017-10-02T14:39:27.359Z,168
2017-10-02T14:40:36.199Z,132
2017-10-02T14:41:45.035Z,112
2017-10-02T14:42:53.879Z,116
2017-10-02T14:44:02.715Z,204
2017-10-02T14:45:11.558Z,176
2017-10-02T14:46:20.395Z,220
2017-10-02T14:47:29.236Z,280
2017-10-02T14:48:38.073Z,304
2017-10-02T14:49:46.917Z,388
2017-10-02T14:50:55.756Z,420
2017-10-02T14:52:04.592Z,380
2017-10-02T14:53:13.433Z,572
2017-10-02T14:54:22.269Z,424
2017-10-02T14:55:31.111Z,248
2017-10-02T14:56:39.950Z,268
2017-10-02T14:57:48.789Z,324
2017-10-02T14:58:57.626Z,264
2017-10-02T15:00:06.464Z,292
2017-10-02T15:01:15.310Z,228
2017-10-02T15:02:24.152Z,244
2017-10-02T15:03:32.996Z,228
2017-10-02T15:04:41.832Z,244
2017-10-02T15:05:50.666Z,268
2017-10-02T15:06:59.507Z,192
2017-10-02T15:08:08.346Z,192
2017-10-02T15:09:17.187Z,124
2017-10-02T15:10:26.026Z,192
2017-10-02T15:11:34.861Z,116
2017-10-02T15:12:43.704Z,140
2017-10-02T15:13:52.543Z,132
2017-10-02T15:15:01.382Z,128
2017-10-02T15:16:10.546Z,88
2017-10-02T15:17:19.384Z,116
2017-10-02T15:18:28.222Z,120
2017-10-02T15:19:37.065Z,88
2017-10-02T15:20:45.902Z,100
2017-10-02T15:21:54.740Z,104
2017-10-02T15:23:03.579Z,84
2017-10-02T15:24:12.417Z,76
2017-10-02T15:25:21.258Z,112
2017-10-02T15:26:30.096Z,104
2017-10-02T15:27:38.935Z,96
2017-10-02T15:28:47.770Z,92
2017-10-02T15:29:56.608Z,104
2017-10-02T15:31:05.450Z,132
2017-10-02T15:32:14.286Z,156
2017-10-02T15:33:23.135Z,156
2017-10-02T15:34:31.976Z,136
2017-10-02T15:35:40.813Z,96
2017-10-02T15:36:49.652Z,96
2017-10-02T15:37:58.497Z,80
2017-10-02T15:39:07.334Z,60
2017-10-02T15:40:16.171Z,56
2017-10-02T15:41:25.010Z,100
2017-10-02T15:42:33.844Z,84
2017-10-02T15:43:42.692Z,80
2017-10-02T15:44:51.532Z,64
2017-10-02T15:46:00.364Z,76
2017-10-02T15:47:09.215Z,80
2017-10-02T15:48:18.057Z,60
2017-10-02T15:49:26.895Z,60
2017-10-02T15:50:35.736Z,64
2017-10-02T15:51:44.578Z,52
2017-10-02T15:52:53.411Z,56
2017-10-02T15:54:02.246Z,72
2017-10-02T15:55:11.089Z,68
2017-10-02T15:56:19.932Z,68
2017-10-02T15:57:28.772Z,68
2017-10-02T15:58:37.609Z,68
2017-10-02T15:59:46.453Z,76
2017-10-02T16:00:55.289Z,76
2017-10-02T16:02:04.128Z,60
2017-10-02T16:03:12.966Z,60
2017-10-02T16:04:21.808Z,68